createdAt,value
2023-01-29T00:02:07.987Z,142.30
2023-01-29T00:04:35.901Z,142.63
2023-01-29T00:07:03.699Z,142.27
2023-01-29T00:09:31.938Z,142.77
2023-01-29T00:12:01.192Z,143.13
2023-01-29T00:14:29.139Z,143.00
2023-01-29T00:16:56.943Z,142.97
2023-01-29T00:19:24.788Z,142.63
2023-01-29T00:21:52.581Z,142.77
2023-01-29T00:24:20.446Z,143.13
2023-01-29T00:26:50.002Z,142.57
2023-01-29T00:29:19.514Z,142.47
2023-01-29T00:31:47.434Z,142.37
2023-01-29T00:34:17.075Z,142.47
2023-01-29T00:36:45.576Z,142.93
2023-01-29T00:39:13.810Z,142.90
2023-01-29T00:41:59.363Z,141.93
2023-01-29T00:44:46.252Z,142.47
2023-01-29T00:47:27.985Z,142.27
2023-01-29T00:49:55.830Z,142.50
2023-01-29T00:52:26.929Z,142.50
2023-01-29T00:54:55.897Z,142.23
2023-01-29T00:57:24.048Z,142.27
2023-01-29T00:59:53.220Z,142.07
2023-01-29T01:02:39.136Z,142.40
2023-01-29T01:05:10.200Z,141.70
2023-01-29T01:07:38.003Z,141.97
2023-01-29T01:10:24.323Z,141.97
2023-01-29T01:12:55.935Z,142.10
2023-01-29T01:15:26.827Z,142.00
2023-01-29T01:17:56.839Z,141.87
2023-01-29T01:20:25.101Z,141.73
2023-01-29T01:22:54.676Z,141.90
2023-01-29T01:25:22.905Z,142.47
2023-01-29T01:27:53.799Z,142.07
2023-01-29T01:30:22.155Z,141.13
2023-01-29T01:32:51.840Z,141.60
2023-01-29T01:35:19.901Z,142.03
2023-01-29T01:37:47.737Z,142.73
2023-01-29T01:40:20.153Z,142.80
2023-01-29T01:42:50.052Z,141.63
2023-01-29T01:45:22.379Z,142.27
2023-01-29T01:47:55.274Z,141.87
2023-01-29T01:50:27.927Z,141.90
2023-01-29T01:53:00.092Z,142.20
2023-01-29T01:55:31.071Z,142.20
2023-01-29T01:58:03.890Z,141.37
2023-01-29T02:00:31.739Z,141.67
2023-01-29T02:03:19.756Z,141.97
2023-01-29T02:06:08.192Z,142.03
2023-01-29T02:09:02.287Z,141.33
2023-01-29T02:11:31.153Z,141.20
2023-01-29T02:13:59.160Z,141.60
2023-01-29T02:16:27.236Z,141.63
2023-01-29T02:18:57.971Z,141.07
2023-01-29T02:21:48.992Z,141.40
2023-01-29T02:24:34.830Z,141.33
2023-01-29T02:27:08.988Z,141.40
2023-01-29T02:29:54.018Z,141.37
2023-01-29T02:32:28.730Z,141.53
2023-01-29T02:35:24.943Z,141.83
2023-01-29T02:38:02.597Z,141.20
2023-01-29T02:40:33.363Z,141.57
2023-01-29T02:43:09.623Z,141.47
2023-01-29T02:45:48.281Z,141.40
2023-01-29T02:48:20.507Z,141.33
2023-01-29T02:50:54.237Z,141.67
2023-01-29T02:53:28.319Z,141.37
2023-01-29T02:56:00.036Z,140.83
2023-01-29T02:58:32.719Z,141.20
2023-01-29T03:01:05.909Z,140.77
2023-01-29T03:03:40.353Z,141.27
2023-01-29T03:06:19.240Z,140.97
2023-01-29T03:08:51.813Z,140.83
2023-01-29T03:11:19.679Z,141.23
2023-01-29T03:13:52.876Z,141.57
2023-01-29T03:16:25.825Z,141.33
2023-01-29T03:18:58.483Z,141.17
2023-01-29T03:21:49.221Z,141.43
2023-01-29T03:24:37.615Z,141.60
2023-01-29T03:27:27.832Z,140.87
2023-01-29T03:30:16.300Z,141.03
2023-01-29T03:33:11.351Z,141.07
2023-01-29T03:35:48.236Z,141.07
2023-01-29T03:38:16.413Z,141.50
2023-01-29T03:40:50.081Z,141.77
2023-01-29T03:43:29.896Z,141.70
2023-01-29T03:46:05.104Z,141.60
2023-01-29T03:48:37.630Z,141.47
2023-01-29T03:51:17.497Z,141.40
2023-01-29T03:53:52.405Z,141.23
2023-01-29T03:56:35.101Z,140.90
2023-01-29T03:59:05.850Z,141.27
2023-01-29T04:01:58.110Z,141.37
2023-01-29T04:04:31.162Z,141.23
2023-01-29T04:07:11.864Z,142.03
2023-01-29T04:09:44.383Z,141.53
2023-01-29T04:12:16.807Z,141.37
2023-01-29T04:14:46.289Z,141.27
2023-01-29T04:17:17.934Z,141.87
2023-01-29T04:19:55.021Z,141.80
2023-01-29T04:22:26.550Z,141.83
2023-01-29T04:24:54.781Z,141.60
2023-01-29T04:27:31.565Z,141.40
2023-01-29T04:30:13.234Z,141.27
2023-01-29T04:32:53.963Z,141.47
2023-01-29T04:35:32.524Z,142.13
2023-01-29T04:38:11.147Z,141.67
2023-01-29T04:40:50.623Z,141.37
2023-01-29T04:43:26.783Z,141.53
2023-01-29T04:46:10.408Z,141.40
2023-01-29T04:48:46.900Z,140.97
2023-01-29T04:51:21.916Z,141.17
2023-01-29T04:53:54.154Z,141.40
2023-01-29T04:56:27.781Z,141.63
2023-01-29T04:59:00.402Z,140.83
2023-01-29T05:01:33.006Z,141.23
2023-01-29T05:04:03.843Z,140.87
2023-01-29T05:06:33.719Z,141.00
2023-01-29T05:09:10.551Z,141.20
2023-01-29T05:11:38.563Z,141.17
2023-01-29T05:14:09.827Z,142.10
2023-01-29T05:16:43.483Z,141.20
2023-01-29T05:19:12.552Z,141.13
2023-01-29T05:21:44.394Z,141.20
2023-01-29T05:24:14.076Z,141.07
2023-01-29T05:27:01.367Z,141.10
2023-01-29T05:29:30.211Z,140.93
2023-01-29T05:31:58.083Z,141.10
2023-01-29T05:34:26.020Z,141.03
2023-01-29T05:36:55.154Z,141.20
2023-01-29T05:39:23.016Z,141.03
2023-01-29T05:41:50.913Z,141.10
2023-01-29T05:44:18.714Z,141.33
2023-01-29T05:46:46.554Z,141.37
2023-01-29T05:49:14.463Z,141.20
2023-01-29T05:51:42.280Z,141.73
2023-01-29T05:54:13.621Z,141.30
2023-01-29T05:56:41.684Z,141.67
2023-01-29T05:59:09.490Z,142.27
2023-01-29T06:01:37.577Z,141.77
2023-01-29T06:04:05.580Z,141.73
2023-01-29T06:06:33.406Z,141.33
2023-01-29T06:09:01.290Z,141.57
2023-01-29T06:11:30.496Z,141.77
2023-01-29T06:13:58.636Z,141.33
2023-01-29T06:16:26.519Z,141.57
2023-01-29T06:18:54.351Z,141.63
2023-01-29T06:21:22.332Z,141.80
2023-01-29T06:23:50.159Z,141.83
2023-01-29T06:26:17.947Z,142.07
2023-01-29T06:28:49.979Z,141.77
2023-01-29T06:31:37.859Z,141.70
2023-01-29T06:34:06.595Z,141.27
2023-01-29T06:36:34.671Z,141.93
2023-01-29T06:39:02.769Z,141.73
2023-01-29T06:41:30.676Z,141.23
2023-01-29T06:43:59.842Z,141.83
2023-01-29T06:46:27.647Z,141.53
2023-01-29T06:48:55.493Z,141.70
2023-01-29T06:51:23.297Z,141.43
2023-01-29T06:53:51.118Z,141.37
2023-01-29T06:56:18.915Z,141.37
2023-01-29T06:58:46.762Z,140.60
2023-01-29T07:01:34.287Z,141.60
2023-01-29T07:04:03.608Z,140.30
2023-01-29T07:06:32.208Z,139.13
2023-01-29T07:09:00.031Z,138.77
2023-01-29T07:11:27.819Z,137.97
2023-01-29T07:13:55.602Z,137.40
2023-01-29T07:16:25.013Z,136.97
2023-01-29T07:18:53.055Z,136.33
2023-01-29T07:21:20.936Z,134.67
2023-01-29T07:23:48.723Z,134.27
2023-01-29T07:26:17.056Z,133.80
2023-01-29T07:28:44.846Z,133.87
2023-01-29T07:31:14.386Z,134.00
2023-01-29T07:33:44.188Z,134.17
2023-01-29T07:36:13.244Z,133.50
2023-01-29T07:38:41.133Z,133.47
2023-01-29T07:41:10.096Z,132.97
2023-01-29T07:43:37.904Z,133.47
2023-01-29T07:46:06.158Z,133.40
2023-01-29T07:48:34.399Z,132.97
2023-01-29T07:51:03.599Z,132.30
2023-01-29T07:53:31.881Z,132.67
2023-01-29T07:55:59.697Z,132.80
2023-01-29T07:58:27.562Z,132.00
2023-01-29T08:00:55.461Z,132.63
2023-01-29T08:03:23.293Z,132.10
2023-01-29T08:05:51.133Z,131.97
2023-01-29T08:08:20.344Z,132.10
2023-01-29T08:10:48.120Z,131.80
2023-01-29T08:13:16.093Z,132.03
2023-01-29T08:15:45.202Z,131.93
2023-01-29T08:18:13.672Z,131.87
2023-01-29T08:20:41.531Z,132.27
2023-01-29T08:23:13.470Z,131.47
2023-01-29T08:25:43.007Z,132.27
2023-01-29T08:28:12.239Z,131.67
2023-01-29T08:30:40.420Z,131.90
2023-01-29T08:33:08.315Z,132.13
2023-01-29T08:35:36.117Z,131.13
2023-01-29T08:38:05.491Z,131.73
2023-01-29T08:40:35.390Z,131.83
2023-01-29T08:43:08.751Z,133.57
2023-01-29T08:45:38.776Z,137.70
2023-01-29T08:48:07.429Z,140.20
2023-01-29T08:50:35.481Z,142.43
2023-01-29T08:53:07.438Z,144.03
2023-01-29T08:55:37.720Z,144.87
2023-01-29T08:58:07.579Z,146.37
2023-01-29T09:00:35.841Z,146.70
2023-01-29T09:03:03.817Z,147.63
2023-01-29T09:05:32.194Z,148.20
2023-01-29T09:08:00.357Z,148.40
2023-01-29T09:10:28.155Z,148.50
2023-01-29T09:12:56.046Z,148.43
2023-01-29T09:15:25.541Z,149.37
2023-01-29T09:17:53.457Z,148.93
2023-01-29T09:20:21.469Z,148.63
2023-01-29T09:22:50.545Z,150.10
2023-01-29T09:25:18.886Z,149.00
2023-01-29T09:27:46.899Z,149.07
2023-01-29T09:30:15.379Z,149.37
2023-01-29T09:32:53.854Z,150.07
2023-01-29T09:35:22.441Z,149.57
2023-01-29T09:37:50.299Z,149.50
2023-01-29T09:40:25.675Z,149.97
2023-01-29T09:42:58.449Z,150.17
2023-01-29T09:45:29.229Z,150.23
2023-01-29T09:48:00.969Z,149.90
2023-01-29T09:50:38.237Z,150.03
2023-01-29T09:53:15.988Z,149.93
2023-01-29T09:55:49.242Z,150.07
2023-01-29T09:58:22.410Z,150.60
2023-01-29T10:00:59.752Z,150.33
2023-01-29T10:03:55.965Z,149.97
2023-01-29T10:06:32.952Z,150.33
2023-01-29T10:09:42.652Z,150.37
2023-01-29T10:12:28.822Z,150.43
2023-01-29T10:15:03.671Z,150.43
2023-01-29T10:17:51.267Z,150.43
2023-01-29T10:20:48.827Z,150.00
2023-01-29T10:23:22.912Z,150.47
2023-01-29T10:25:51.065Z,150.63
2023-01-29T10:28:21.624Z,151.20
2023-01-29T10:30:51.724Z,151.10
2023-01-29T10:33:24.188Z,151.00
2023-01-29T10:35:57.810Z,151.13
2023-01-29T10:38:36.135Z,151.23
2023-01-29T10:41:17.420Z,152.07
2023-01-29T10:43:55.442Z,150.87
2023-01-29T10:46:32.606Z,151.63
2023-01-29T10:49:09.455Z,151.30
2023-01-29T10:51:56.078Z,151.43
2023-01-29T10:54:48.272Z,151.73
2023-01-29T10:57:28.601Z,150.50
2023-01-29T11:00:07.181Z,151.33
2023-01-29T11:02:35.292Z,151.53
2023-01-29T11:05:03.102Z,151.30
2023-01-29T11:07:32.316Z,151.57
2023-01-29T11:10:08.520Z,151.43
2023-01-29T11:12:38.757Z,151.50
2023-01-29T11:15:14.801Z,151.60
2023-01-29T11:18:02.358Z,151.13
2023-01-29T11:20:31.464Z,151.67
2023-01-29T11:23:00.575Z,151.47
2023-01-29T11:25:29.753Z,150.73
2023-01-29T11:28:00.482Z,151.10
2023-01-29T11:30:31.010Z,150.83
2023-01-29T11:33:09.062Z,151.53
2023-01-29T11:35:37.769Z,151.20
2023-01-29T11:38:20.669Z,151.20
2023-01-29T11:40:48.899Z,151.20
2023-01-29T11:43:28.885Z,151.73
2023-01-29T11:46:00.453Z,150.93
2023-01-29T11:48:42.007Z,150.40
2023-01-29T11:51:13.008Z,150.77
2023-01-29T11:53:44.922Z,151.20
2023-01-29T11:56:23.491Z,151.83
2023-01-29T11:58:53.767Z,152.03
2023-01-29T12:01:32.783Z,151.77
2023-01-29T12:04:01.962Z,151.40
2023-01-29T12:06:35.128Z,151.57
2023-01-29T12:09:11.745Z,151.43
2023-01-29T12:11:39.558Z,152.00
2023-01-29T12:14:27.443Z,151.67
2023-01-29T12:17:00.372Z,151.33
2023-01-29T12:19:35.263Z,151.87
2023-01-29T12:22:06.709Z,151.83
2023-01-29T12:24:42.126Z,151.87
2023-01-29T12:27:16.679Z,151.13
2023-01-29T12:29:50.725Z,152.00
2023-01-29T12:32:29.173Z,151.73
2023-01-29T12:35:02.681Z,151.53
2023-01-29T12:37:40.010Z,152.17
2023-01-29T12:40:15.739Z,152.03
2023-01-29T12:42:49.112Z,152.17
2023-01-29T12:45:19.554Z,152.43
2023-01-29T12:47:51.865Z,151.67
2023-01-29T12:50:23.587Z,152.30
2023-01-29T12:52:54.915Z,151.60
2023-01-29T12:55:28.874Z,151.80
2023-01-29T12:57:59.601Z,151.57
2023-01-29T13:00:30.651Z,152.37
2023-01-29T13:03:03.869Z,151.87
2023-01-29T13:05:39.971Z,151.93
2023-01-29T13:08:10.871Z,152.03
2023-01-29T13:10:44.599Z,151.97
2023-01-29T13:13:16.832Z,152.17
2023-01-29T13:15:45.438Z,152.07
2023-01-29T13:18:32.799Z,152.23
2023-01-29T13:21:01.872Z,152.00
2023-01-29T13:23:35.134Z,152.20
2023-01-29T13:26:05.611Z,151.37
2023-01-29T13:28:33.795Z,152.20
2023-01-29T13:31:22.420Z,152.07
2023-01-29T13:33:56.991Z,151.70
2023-01-29T13:36:28.985Z,152.13
2023-01-29T13:39:02.232Z,152.37
2023-01-29T13:41:37.933Z,151.10
2023-01-29T13:44:09.597Z,151.70
2023-01-29T13:46:42.382Z,152.13
2023-01-29T13:49:28.595Z,151.30
2023-01-29T13:51:56.682Z,152.00
2023-01-29T13:54:27.345Z,151.20
2023-01-29T13:57:01.759Z,152.20
2023-01-29T13:59:52.962Z,152.37
2023-01-29T14:02:24.702Z,152.20
2023-01-29T14:04:52.687Z,151.50
2023-01-29T14:07:40.333Z,152.33
2023-01-29T14:10:15.866Z,152.07
2023-01-29T14:12:50.617Z,152.00
2023-01-29T14:15:30.164Z,152.17
2023-01-29T14:18:01.630Z,152.30
2023-01-29T14:20:46.507Z,151.70
2023-01-29T14:23:28.298Z,151.97
2023-01-29T14:25:56.592Z,151.97
2023-01-29T14:28:29.421Z,151.93
2023-01-29T14:30:57.659Z,151.60
2023-01-29T14:33:29.462Z,151.77
2023-01-29T14:35:59.765Z,152.00
2023-01-29T14:38:30.025Z,151.53
2023-01-29T14:41:09.436Z,152.03
2023-01-29T14:43:38.562Z,152.17
2023-01-29T14:46:44.786Z,152.00
2023-01-29T14:49:12.867Z,151.23
2023-01-29T14:51:45.252Z,151.33
2023-01-29T14:54:26.204Z,152.03
2023-01-29T14:57:00.255Z,151.10
2023-01-29T14:59:37.212Z,151.27
2023-01-29T15:02:15.255Z,151.87
2023-01-29T15:04:49.623Z,151.80
2023-01-29T15:07:27.874Z,151.77
2023-01-29T15:10:20.967Z,151.37
2023-01-29T15:12:53.398Z,151.70
2023-01-29T15:15:32.498Z,151.87
2023-01-29T15:18:05.673Z,151.67
2023-01-29T15:20:35.791Z,151.50
2023-01-29T15:23:06.065Z,151.97
2023-01-29T15:25:37.483Z,152.17
2023-01-29T15:28:10.091Z,151.30
2023-01-29T15:30:39.484Z,151.73
2023-01-29T15:33:11.397Z,151.53
2023-01-29T15:35:41.127Z,152.37
2023-01-29T15:38:17.078Z,150.97
2023-01-29T15:40:53.171Z,151.37
2023-01-29T15:43:22.568Z,151.00
2023-01-29T15:45:52.848Z,152.47
2023-01-29T15:48:28.919Z,151.80
2023-01-29T15:50:57.425Z,150.93
2023-01-29T15:53:31.875Z,152.03
2023-01-29T15:56:00.104Z,151.53
2023-01-29T15:58:32.073Z,151.50
2023-01-29T16:01:02.765Z,151.23
2023-01-29T16:03:34.177Z,151.53
2023-01-29T16:06:02.805Z,151.40
2023-01-29T16:08:31.039Z,151.10
2023-01-29T16:11:01.603Z,151.30
2023-01-29T16:13:31.346Z,150.73
2023-01-29T16:16:02.443Z,151.97
2023-01-29T16:18:33.006Z,151.40
2023-01-29T16:21:05.407Z,151.27
2023-01-29T16:23:37.631Z,151.00
2023-01-29T16:26:09.336Z,150.97
2023-01-29T16:28:41.565Z,151.47
2023-01-29T16:31:12.176Z,151.70
2023-01-29T16:33:42.436Z,152.03
2023-01-29T16:36:17.549Z,151.60
2023-01-29T16:38:48.480Z,151.47
2023-01-29T16:41:30.806Z,151.20
2023-01-29T16:44:01.320Z,151.03
2023-01-29T16:46:36.899Z,151.83
2023-01-29T16:49:47.598Z,150.80
2023-01-29T16:52:19.634Z,151.70
2023-01-29T16:54:47.522Z,151.47
2023-01-29T16:57:18.887Z,151.53
2023-01-29T16:59:47.132Z,151.37
2023-01-29T17:02:23.351Z,150.93
2023-01-29T17:04:54.887Z,151.33
2023-01-29T17:07:23.162Z,151.57
2023-01-29T17:09:54.129Z,151.57
2023-01-29T17:12:24.892Z,150.93
2023-01-29T17:14:57.645Z,151.80
2023-01-29T17:17:31.138Z,152.10
2023-01-29T17:20:03.468Z,151.47
2023-01-29T17:22:31.250Z,152.20
2023-01-29T17:24:59.053Z,152.07
2023-01-29T17:27:26.916Z,151.73
2023-01-29T17:29:54.733Z,151.93
2023-01-29T17:32:22.523Z,151.60
2023-01-29T17:34:51.223Z,151.43
2023-01-29T17:37:20.363Z,150.80
2023-01-29T17:39:50.389Z,151.03
2023-01-29T17:42:18.389Z,151.67
2023-01-29T17:44:46.339Z,151.60
2023-01-29T17:47:15.322Z,151.57
2023-01-29T17:49:43.903Z,151.67
2023-01-29T17:52:11.775Z,151.97
2023-01-29T17:54:40.928Z,151.33
2023-01-29T17:57:11.460Z,151.67
2023-01-29T17:59:39.298Z,151.67
2023-01-29T18:02:08.519Z,151.30
2023-01-29T18:04:56.312Z,151.67
2023-01-29T18:07:24.114Z,151.93
2023-01-29T18:09:53.217Z,152.00
2023-01-29T18:12:20.991Z,151.57
2023-01-29T18:14:48.801Z,151.73
2023-01-29T18:17:22.081Z,152.07
2023-01-29T18:19:50.307Z,151.87
2023-01-29T18:22:18.109Z,151.80
2023-01-29T18:24:45.934Z,152.00
2023-01-29T18:27:15.091Z,151.63
2023-01-29T18:29:43.000Z,151.30
2023-01-29T18:32:11.663Z,151.77
2023-01-29T18:34:41.112Z,152.57
2023-01-29T18:37:10.898Z,152.00
2023-01-29T18:39:39.977Z,151.83
2023-01-29T18:42:07.831Z,151.90
2023-01-29T18:44:37.511Z,152.00
2023-01-29T18:47:05.868Z,152.47
2023-01-29T18:49:33.668Z,151.10
2023-01-29T18:52:01.460Z,152.20
2023-01-29T18:54:29.433Z,151.40
2023-01-29T18:57:13.156Z,151.93
2023-01-29T18:59:45.562Z,152.67
2023-01-29T19:02:15.235Z,151.57
2023-01-29T19:04:43.553Z,152.30
2023-01-29T19:07:12.450Z,152.00
2023-01-29T19:09:42.035Z,152.27
2023-01-29T19:12:09.919Z,151.67
2023-01-29T19:14:38.318Z,151.70
2023-01-29T19:17:07.494Z,152.10
2023-01-29T19:19:38.619Z,152.07
2023-01-29T19:22:06.487Z,152.17
2023-01-29T19:24:39.059Z,151.33
2023-01-29T19:27:07.601Z,151.97
2023-01-29T19:29:35.677Z,151.70
2023-01-29T19:32:03.487Z,152.27
2023-01-29T19:34:32.651Z,152.03
2023-01-29T19:37:00.687Z,151.40
2023-01-29T19:39:33.460Z,151.70
2023-01-29T19:42:01.646Z,151.83
2023-01-29T19:44:29.695Z,151.97
2023-01-29T19:46:57.486Z,151.97
2023-01-29T19:49:26.311Z,152.10
2023-01-29T19:51:58.673Z,151.93
2023-01-29T19:54:27.677Z,151.43
2023-01-29T19:56:55.566Z,152.00
2023-01-29T19:59:23.764Z,152.00
2023-01-29T20:01:51.672Z,152.30
2023-01-29T20:04:19.504Z,152.37
2023-01-29T20:06:47.309Z,151.90
2023-01-29T20:09:17.547Z,152.57
2023-01-29T20:11:45.312Z,152.43
2023-01-29T20:14:13.126Z,152.47
2023-01-29T20:16:40.974Z,151.67
2023-01-29T20:19:14.321Z,151.73
2023-01-29T20:21:45.409Z,151.87
2023-01-29T20:24:14.212Z,152.17
2023-01-29T20:26:43.417Z,151.77
2023-01-29T20:29:11.414Z,152.43
2023-01-29T20:31:39.230Z,152.40
2023-01-29T20:34:07.082Z,151.73
2023-01-29T20:36:34.880Z,152.00
2023-01-29T20:39:02.683Z,152.33
2023-01-29T20:41:30.475Z,152.10
2023-01-29T20:43:59.632Z,152.40
2023-01-29T20:46:28.015Z,151.70
2023-01-29T20:48:56.588Z,151.70
2023-01-29T20:51:24.369Z,151.67
2023-01-29T20:53:52.267Z,151.83
2023-01-29T20:56:34.290Z,151.30
2023-01-29T20:59:07.049Z,151.23
2023-01-29T21:01:34.830Z,152.13
2023-01-29T21:04:02.911Z,152.10
2023-01-29T21:06:30.745Z,152.03
2023-01-29T21:08:58.616Z,151.90
2023-01-29T21:11:26.467Z,152.23
2023-01-29T21:13:57.519Z,152.47
2023-01-29T21:16:26.935Z,152.27
2023-01-29T21:18:56.787Z,151.97
2023-01-29T21:21:26.435Z,152.10
2023-01-29T21:23:54.580Z,151.67
2023-01-29T21:26:23.479Z,152.83
2023-01-29T21:28:51.346Z,152.13
2023-01-29T21:31:19.136Z,151.57
2023-01-29T21:33:48.248Z,151.93
2023-01-29T21:36:16.060Z,151.93
2023-01-29T21:38:43.898Z,152.03
2023-01-29T21:41:11.867Z,151.97
2023-01-29T21:43:38.931Z,151.47
2023-01-29T21:46:11.459Z,151.33
2023-01-29T21:48:40.198Z,152.30
2023-01-29T21:51:09.693Z,151.80
2023-01-29T21:53:37.626Z,152.53
2023-01-29T21:56:06.677Z,151.67
2023-01-29T21:58:34.832Z,152.20
2023-01-29T22:01:36.649Z,152.37
2023-01-29T22:03:50.449Z,152.20
2023-01-29T22:06:19.673Z,152.10
2023-01-29T22:08:49.216Z,152.07
2023-01-29T22:11:17.313Z,151.67
2023-01-29T22:13:45.089Z,152.67
2023-01-29T22:16:12.915Z,151.67
2023-01-29T22:18:40.737Z,152.27
2023-01-29T22:21:08.620Z,152.20
2023-01-29T22:23:37.930Z,152.57
2023-01-29T22:26:06.689Z,151.87
2023-01-29T22:28:34.575Z,152.77
2023-01-29T22:31:02.992Z,152.37
2023-01-29T22:33:30.999Z,152.27
2023-01-29T22:35:58.995Z,152.23
2023-01-29T22:38:27.205Z,152.50
2023-01-29T22:40:57.581Z,152.40
2023-01-29T22:43:26.184Z,152.70
2023-01-29T22:45:54.029Z,151.70
2023-01-29T22:48:23.574Z,152.03
2023-01-29T22:51:09.713Z,152.23
2023-01-29T22:53:38.115Z,151.90
2023-01-29T22:56:09.014Z,152.03
2023-01-29T22:58:37.990Z,151.50
2023-01-29T23:01:06.225Z,152.40
2023-01-29T23:03:34.486Z,152.47
2023-01-29T23:06:02.505Z,152.13
2023-01-29T23:08:30.364Z,152.07
2023-01-29T23:11:13.613Z,151.70
2023-01-29T23:13:44.047Z,152.87
2023-01-29T23:16:12.139Z,151.97
2023-01-29T23:18:40.473Z,151.53
2023-01-29T23:21:08.727Z,152.10
2023-01-29T23:23:38.353Z,151.57
2023-01-29T23:26:25.288Z,152.13
2023-01-29T23:28:54.436Z,151.93
2023-01-29T23:31:22.273Z,152.60
2023-01-29T23:33:50.410Z,152.03
2023-01-29T23:36:18.689Z,151.90
2023-01-29T23:38:46.465Z,152.33
2023-01-29T23:41:15.170Z,151.37
2023-01-29T23:43:43.248Z,152.30
2023-01-29T23:46:12.416Z,152.10
2023-01-29T23:48:40.241Z,152.07
2023-01-29T23:51:08.068Z,151.57
2023-01-29T23:53:35.871Z,151.97
2023-01-29T23:56:05.786Z,152.27
2023-01-29T23:58:34.083Z,151.67
